Time;durP1;ratioP1;P1;durP2;ratioP2;P2;SDS_P1;SDS_P2;PMS_P1;PMS_P2;Temp;Humidity;BMP_temperature;BMP_pressure;BME280_temperature;BME280_humidity;BME280_pressure;Samples;Min_cycle;Max_cycle;Signal;HPM_P1;HPM_P2
2022/12/09 00:01:35;;;;;;;53.97;15.95;;;;;;;1.01;49.16;94473.81;5023010;28;20131;-75
2022/12/09 00:04:00;;;;;;;78.65;16.52;;;;;;;0.56;49.31;94468.38;5010966;28;20105;-75
2022/12/09 00:06:27;;;;;;;81.32;15.70;;;;;;;0.43;50.47;94463.44;5021808;28;20180;-75
2022/12/09 00:08:53;;;;;;;71.65;16.45;;;;;;;0.26;47.72;94463.22;5011872;28;20279;-75
2022/12/09 00:11:19;;;;;;;45.05;13.35;;;;;;;0.26;48.04;94467.63;4985486;28;20122;-75
2022/12/09 00:13:51;;;;;;;31.23;17.00;;;;;;;0.36;48.87;94462.34;4993923;28;20171;-75
2022/12/09 00:16:17;;;;;;;25.00;15.50;;;;;;;0.57;51.07;94464.78;4991084;28;20074;-75
2022/12/09 00:18:42;;;;;;;33.65;17.85;;;;;;;0.58;48.05;94463.81;5010461;28;20478;-75
2022/12/09 00:21:22;;;;;;;35.60;19.95;;;;;;;0.50;46.39;94456.66;5011079;28;20077;-75
2022/12/09 00:23:47;;;;;;;38.33;17.63;;;;;;;0.63;50.05;94464.19;5012378;28;20121;-75
2022/12/09 00:26:13;;;;;;;39.88;19.95;;;;;;;0.72;48.69;94462.53;5000723;28;20137;-75
2022/12/09 00:28:38;;;;;;;47.50;20.40;;;;;;;0.79;48.99;94458.31;5010116;28;20082;-75
2022/12/09 00:31:04;;;;;;;37.78;20.48;;;;;;;0.90;49.98;94459.94;4991157;28;20196;-75
2022/12/09 00:33:30;;;;;;;41.10;20.45;;;;;;;0.93;50.83;94454.41;5008565;28;20070;-75
2022/12/09 00:36:05;;;;;;;41.80;21.20;;;;;;;0.93;48.04;94457.03;4999392;28;20107;-75
2022/12/09 00:38:30;;;;;;;38.47;20.58;;;;;;;0.87;48.02;94459.41;5004926;28;20563;-75
2022/12/09 00:40:55;;;;;;;34.80;19.90;;;;;;;0.83;47.47;94459.72;5009031;28;20097;-75
2022/12/09 00:43:21;;;;;;;34.38;19.58;;;;;;;0.80;48.89;94452.13;5009611;28;20152;-75
2022/12/09 00:45:46;;;;;;;33.78;18.77;;;;;;;0.79;49.22;94452.28;5011960;28;20087;-75
2022/12/09 00:48:12;;;;;;;29.65;17.20;;;;;;;0.78;49.60;94456.69;5007348;28;20086;-75
2022/12/09 00:50:37;;;;;;;35.88;19.77;;;;;;;0.63;45.17;94445.88;5008123;28;20106;-75
2022/12/09 00:53:03;;;;;;;32.97;17.38;;;;;;;0.51;49.81;94449.66;4992638;28;20121;-75
2022/12/09 00:55:28;;;;;;;30.40;18.02;;;;;;;0.39;49.84;94448.97;5009907;28;20101;-75
2022/12/09 00:57:53;;;;;;;28.13;17.02;;;;;;;0.55;50.01;94441.34;5020571;28;20078;-75
2022/12/09 01:00:19;;;;;;;29.52;16.35;;;;;;;0.65;51.71;94446.53;5004665;28;20107;-75
2022/12/09 01:02:44;;;;;;;26.13;16.23;;;;;;;0.72;52.30;94444.97;5006333;28;20577;-75
2022/12/09 01:05:10;;;;;;;25.17;15.23;;;;;;;0.78;51.87;94440.16;5006428;28;20501;-75
2022/12/09 01:07:36;;;;;;;23.65;14.82;;;;;;;0.81;51.23;94443.28;5033646;28;20089;-75
2022/12/09 01:10:02;;;;;;;24.00;13.70;;;;;;;0.72;47.15;94437.13;5022409;28;20068;-75
2022/12/09 01:12:28;;;;;;;20.70;13.23;;;;;;;0.61;49.37;94433.88;5040822;28;20414;-75
2022/12/09 01:14:53;;;;;;;21.77;13.27;;;;;;;0.60;49.92;94443.53;5021974;28;20102;-75
2022/12/09 01:17:19;;;;;;;22.38;13.32;;;;;;;0.56;49.62;94443.00;5036979;28;20074;-75
2022/12/09 01:19:45;;;;;;;21.38;12.68;;;;;;;0.51;49.33;94444.41;5021950;28;20085;-75
2022/12/09 01:22:10;;;;;;;18.50;11.73;;;;;;;0.36;49.19;94444.88;5036701;28;20168;-75
2022/12/09 01:24:35;;;;;;;19.95;12.50;;;;;;;0.26;47.99;94444.06;5041291;28;20097;-75
2022/12/09 01:27:01;;;;;;;20.02;11.55;;;;;;;0.22;49.59;94446.16;5011544;28;20389;-75
2022/12/09 01:29:26;;;;;;;18.02;11.57;;;;;;;0.19;48.77;94443.81;5010723;28;20440;-75
2022/12/09 01:31:53;;;;;;;19.25;11.88;;;;;;;0.08;47.85;94445.63;5017447;28;20087;-75
2022/12/09 01:34:18;;;;;;;18.27;11.73;;;;;;;0.00;50.10;94440.28;5001898;28;20087;-75
2022/12/09 01:36:46;;;;;;;20.23;12.02;;;;;;;-0.13;49.36;94443.19;5026192;28;20662;-75
2022/12/09 01:39:11;;;;;;;17.08;10.73;;;;;;;-0.20;49.31;94440.31;5034558;28;20092;-75
2022/12/09 01:41:37;;;;;;;17.90;11.18;;;;;;;-0.27;50.09;94435.78;5004098;28;20073;-75
2022/12/09 01:44:13;;;;;;;17.73;11.48;;;;;;;-0.41;48.86;94431.81;5037658;28;20092;-75
2022/12/09 01:46:39;;;;;;;15.63;9.80;;;;;;;-0.59;47.15;94430.72;5028188;28;20502;-75
2022/12/09 01:49:05;;;;;;;15.85;9.38;;;;;;;-0.66;46.84;94431.38;4988568;28;20077;-75
2022/12/09 01:51:31;;;;;;;16.40;9.98;;;;;;;-0.76;49.89;94437.44;5007485;28;20219;-75
2022/12/09 01:53:56;;;;;;;15.60;9.35;;;;;;;-0.88;47.34;94426.28;4984726;28;20050;-75
2022/12/09 01:56:29;;;;;;;14.57;8.98;;;;;;;-0.98;46.92;94433.25;5023859;28;20505;-75
2022/12/09 01:58:56;;;;;;;17.13;10.77;;;;;;;-0.93;49.95;94436.31;5014039;28;20098;-75
2022/12/09 02:01:22;;;;;;;20.13;11.32;;;;;;;-0.86;51.47;94432.19;4983525;28;20043;-75
2022/12/09 02:03:47;;;;;;;19.90;11.52;;;;;;;-0.77;51.46;94425.34;4979508;28;20609;-75
2022/12/09 02:06:13;;;;;;;16.17;9.93;;;;;;;-0.70;49.37;94423.81;5009727;28;20073;-75
2022/12/09 02:08:38;;;;;;;16.35;10.13;;;;;;;-0.66;51.41;94420.91;4990537;28;20052;-75
2022/12/09 02:11:10;;;;;;;12.48;8.27;;;;;;;-0.80;46.26;94425.59;4990466;28;20067;-75
2022/12/09 02:13:42;;;;;;;14.02;8.25;;;;;;;-0.89;47.41;94426.41;5010579;28;20151;-75
2022/12/09 02:16:08;;;;;;;16.50;8.40;;;;;;;-1.42;47.68;94423.13;5037402;28;20130;-75
2022/12/09 02:19:00;;;;;;;17.33;11.10;;;;;;;-1.68;59.53;94428.78;5022155;28;20041;-75
2022/12/09 02:21:32;;;;;;;18.55;11.32;;;;;;;-1.54;53.74;94425.00;5035319;28;20024;-75
2022/12/09 02:24:22;;;;;;;15.93;10.43;;;;;;;-0.94;56.12;94432.06;5021933;28;20536;-75
2022/12/09 02:26:54;;;;;;;13.63;8.98;;;;;;;-0.63;53.36;94418.03;5012603;28;20045;-75
2022/12/09 02:29:35;;;;;;;12.40;8.10;;;;;;;-0.55;50.08;94410.31;5019866;28;20431;-75
2022/12/09 02:32:03;;;;;;;15.88;10.02;;;;;;;-0.46;52.54;94417.34;5015818;28;20037;-75
2022/12/09 02:34:30;;;;;;;14.38;9.38;;;;;;;-0.33;52.83;94421.47;5026146;28;20041;-75
2022/12/09 02:37:26;;;;;;;12.38;8.27;;;;;;;-0.21;53.69;94417.72;5021250;28;20037;-75
2022/12/09 02:39:53;;;;;;;18.33;10.90;;;;;;;-0.15;51.29;94415.50;5035725;28;20045;-75
2022/12/09 02:42:21;;;;;;;17.63;10.45;;;;;;;-0.15;51.52;94410.28;5017599;28;20033;-75
2022/12/09 02:44:47;;;;;;;21.38;12.10;;;;;;;-0.09;53.43;94407.09;4987696;28;20029;-75
2022/12/09 02:47:14;;;;;;;16.05;9.82;;;;;;;-0.05;50.80;94411.09;4998068;28;20033;-75
2022/12/09 02:49:40;;;;;;;18.38;10.48;;;;;;;-0.07;51.33;94406.00;5019220;28;20167;-75
2022/12/09 02:52:06;;;;;;;17.67;11.15;;;;;;;-0.06;52.33;94410.25;5019842;28;20514;-75
2022/12/09 02:54:31;;;;;;;18.30;11.98;;;;;;;0.03;52.95;94407.75;5020056;28;20422;-75
2022/12/09 02:57:01;;;;;;;13.55;7.65;;;;;;;-0.04;48.28;94407.50;5019528;28;20355;-75
2022/12/09 02:59:27;;;;;;;17.25;9.73;;;;;;;-0.08;49.86;94399.13;5021657;28;20120;-75
2022/12/09 03:02:20;;;;;;;14.18;8.77;;;;;;;-0.17;47.04;94394.72;5020229;28;20083;-75
2022/12/09 03:05:12;;;;;;;16.42;8.95;;;;;;;-0.13;49.24;94390.84;5020773;28;20028;-75
2022/12/09 03:07:44;;;;;;;16.17;9.50;;;;;;;-0.00;52.38;94389.75;5042445;28;20061;-75
2022/12/09 03:10:17;;;;;;;15.27;9.18;;;;;;;0.03;51.69;94385.03;5042671;28;20037;-75
2022/12/09 03:12:46;;;;;;;15.85;9.52;;;;;;;0.01;51.26;94370.44;5041624;28;20037;-75
2022/12/09 03:15:12;;;;;;;;;;;;;;;-0.09;47.48;94386.16;5026254;28;20452;-75
2022/12/09 03:17:37;;;;;;;16.30;9.30;;;;;;;-0.10;51.22;94379.28;5041762;28;19916;-75
2022/12/09 03:20:05;;;;;;;15.27;8.63;;;;;;;-0.12;50.51;94376.81;5024757;28;20131;-75
2022/12/09 03:22:32;;;;;;;16.47;9.33;;;;;;;-0.10;52.05;94374.06;5024125;28;20345;-75
2022/12/09 03:25:18;;;;;;;13.18;8.75;;;;;;;-0.16;50.52;94374.63;5009424;28;20025;-75
2022/12/09 03:27:50;;;;;;;14.07;8.65;;;;;;;-0.24;50.33;94372.72;5026790;28;20601;-75
2022/12/09 03:30:15;;;;;;;12.25;7.65;;;;;;;-0.44;48.12;94360.50;5024945;28;20041;-75
2022/12/09 03:32:41;;;;;;;12.50;7.85;;;;;;;-0.58;48.89;94366.16;5026050;28;20037;-75
2022/12/09 03:35:08;;;;;;;12.20;6.80;;;;;;;-0.58;51.36;94369.59;5031374;28;20279;-75
2022/12/09 03:37:34;;;;;;;14.70;7.45;;;;;;;-0.66;49.29;94363.41;5023224;28;20489;-75
2022/12/09 03:39:59;;;;;;;9.00;5.10;;;;;;;-1.03;45.39;94367.50;5040048;28;20088;-75
2022/12/09 03:42:37;;;;;;;8.13;5.30;;;;;;;-1.31;49.68;94365.56;5024953;28;20399;-75
2022/12/09 03:45:05;;;;;;;11.02;6.63;;;;;;;-1.30;48.64;94364.59;5024225;28;20033;-75
2022/12/09 03:47:30;;;;;;;12.60;7.25;;;;;;;-1.32;49.26;94358.69;5024378;28;20048;-75
2022/12/09 03:49:56;;;;;;;10.85;7.00;;;;;;;-1.30;50.86;94364.59;5007081;28;20033;-75
2022/12/09 03:52:31;;;;;;;11.65;7.32;;;;;;;-1.39;49.55;94357.56;5040589;28;20033;-75
2022/12/09 03:55:02;;;;;;;13.68;7.40;;;;;;;-1.44;51.07;94362.34;5025060;28;20041;-75
2022/12/09 03:57:27;;;;;;;15.38;7.75;;;;;;;-1.47;51.45;94358.22;5002510;28;20180;-75
2022/12/09 04:00:02;;;;;;;12.30;8.13;;;;;;;-1.53;52.51;94364.81;5039988;28;20041;-75
2022/12/09 04:02:28;;;;;;;12.13;8.15;;;;;;;-1.54;52.22;94359.72;5022564;28;20044;-75
2022/12/09 04:04:53;;;;;;;12.68;7.20;;;;;;;-1.64;50.99;94360.53;5024286;28;20029;-75
2022/12/09 04:07:18;;;;;;;10.63;6.95;;;;;;;-1.74;49.60;94363.13;5038621;28;20029;-75
2022/12/09 04:09:44;;;;;;;10.05;6.30;;;;;;;-1.77;50.68;94360.75;5040837;28;20021;-75
2022/12/09 04:12:09;;;;;;;11.93;7.38;;;;;;;-1.79;51.88;94362.69;5042224;28;20722;-75
2022/12/09 04:14:35;;;;;;;9.77;6.13;;;;;;;-1.83;51.70;94358.69;5024325;28;20573;-75
2022/12/09 04:17:00;;;;;;;11.23;6.88;;;;;;;-1.90;51.40;94366.19;5023602;28;20466;-75
2022/12/09 04:19:26;;;;;;;9.18;6.18;;;;;;;-1.95;51.49;94357.13;4997967;28;20405;-75
2022/12/09 04:21:51;;;;;;;9.25;4.97;;;;;;;-1.95;51.90;94357.94;5039974;28;20047;-75
2022/12/09 04:24:16;;;;;;;7.93;4.93;;;;;;;-2.07;48.13;94359.81;5040374;28;20032;-75
2022/12/09 04:26:42;;;;;;;12.48;5.68;;;;;;;-2.11;49.03;94363.63;5023938;28;20037;-75
2022/12/09 04:29:09;;;;;;;10.13;6.28;;;;;;;-2.16;51.63;94366.66;5040197;28;20036;-75
2022/12/09 04:31:34;;;;;;;7.32;4.90;;;;;;;-2.15;51.27;94359.63;5024072;28;20049;-75
2022/12/09 04:34:00;;;;;;;8.20;5.20;;;;;;;-2.15;51.59;94364.84;5022180;28;20335;-75
2022/12/09 04:36:26;;;;;;;11.82;6.10;;;;;;;-2.25;52.03;94356.97;5012329;28;20568;-75
2022/12/09 04:38:51;;;;;;;10.95;6.03;;;;;;;-2.26;52.62;94358.78;5040792;28;20048;-75
2022/12/09 04:41:17;;;;;;;9.68;5.90;;;;;;;-2.32;51.44;94354.06;5040620;28;20032;-75
2022/12/09 04:43:42;;;;;;;9.85;5.50;;;;;;;-2.40;49.61;94354.72;5039904;28;20048;-75
2022/12/09 04:46:11;;;;;;;10.30;6.00;;;;;;;-2.42;50.82;94359.22;5021372;28;20142;-75
2022/12/09 04:48:36;;;;;;;10.57;5.77;;;;;;;-2.41;52.53;94357.47;5038982;28;20037;-76
2022/12/09 04:51:02;;;;;;;11.00;6.22;;;;;;;-2.44;52.28;94362.94;5020450;28;20041;-76
2022/12/09 04:53:27;;;;;;;10.82;6.80;;;;;;;-2.55;52.88;94359.44;5040972;28;20040;-75
2022/12/09 04:56:04;;;;;;;10.45;6.43;;;;;;;-2.54;53.35;94358.47;5006146;28;20068;-75
2022/12/09 04:58:29;;;;;;;8.95;5.93;;;;;;;-2.63;50.68;94360.06;5023642;28;20409;-75
2022/12/09 05:00:55;;;;;;;8.57;5.68;;;;;;;-2.75;51.37;94353.28;5021848;28;20126;-75
2022/12/09 05:03:20;;;;;;;12.60;6.10;;;;;;;-2.71;51.83;94353.84;5023330;28;20029;-75
2022/12/09 05:05:46;;;;;;;9.10;5.30;;;;;;;-2.73;52.27;94350.53;5040291;28;20231;-75
2022/12/09 05:08:11;;;;;;;11.55;6.28;;;;;;;-2.79;51.16;94349.25;5040297;28;20020;-75
2022/12/09 05:10:37;;;;;;;9.95;5.43;;;;;;;-2.77;50.91;94350.78;5040080;28;20441;-75
2022/12/09 05:13:02;;;;;;;9.82;5.78;;;;;;;-2.78;52.60;94345.72;5040044;28;20048;-75
2022/12/09 05:15:28;;;;;;;11.02;6.50;;;;;;;-2.83;51.95;94346.06;5032128;28;20037;-75
2022/12/09 05:17:53;;;;;;;11.35;6.90;;;;;;;-2.88;50.43;94345.63;5039759;28;20414;-75
2022/12/09 05:20:18;;;;;;;11.95;6.80;;;;;;;-2.87;50.55;94349.88;5039780;28;20036;-75
2022/12/09 05:22:44;;;;;;;11.23;6.80;;;;;;;-2.86;51.02;94350.72;5038918;28;20433;-75
2022/12/09 05:25:09;;;;;;;10.95;6.40;;;;;;;-2.82;52.55;94339.91;5023680;28;20036;-75
2022/12/09 05:27:35;;;;;;;10.02;6.60;;;;;;;-2.88;50.63;94341.22;5005650;28;20037;-75
2022/12/09 05:30:00;;;;;;;11.38;6.82;;;;;;;-2.97;50.29;94334.19;5039400;28;20058;-75
2022/12/09 05:32:29;;;;;;;14.52;6.45;;;;;;;-2.95;51.47;94334.06;5006229;28;20608;-75
2022/12/09 05:34:54;;;;;;;12.33;6.57;;;;;;;-2.99;53.04;94337.88;5038729;28;20433;-75
2022/12/09 05:37:20;;;;;;;10.55;7.18;;;;;;;-3.05;53.46;94337.41;5039930;28;20053;-75
2022/12/09 05:39:45;;;;;;;12.40;6.50;;;;;;;-3.16;52.22;94335.69;5022198;28;20056;-75
2022/12/09 05:42:10;;;;;;;12.43;6.50;;;;;;;-3.16;52.93;94334.88;5023037;28;20386;-75
2022/12/09 05:44:36;;;;;;;11.48;6.80;;;;;;;-3.16;51.30;94340.88;5040273;28;20292;-75
2022/12/09 05:47:01;;;;;;;10.32;6.68;;;;;;;-3.13;53.42;94337.19;5040889;28;20037;-75
2022/12/09 05:49:27;;;;;;;10.88;7.00;;;;;;;-3.11;54.01;94331.88;5039160;28;20446;-75
2022/12/09 05:51:52;;;;;;;14.60;7.80;;;;;;;-3.12;53.74;94328.47;5039213;28;20673;-75
2022/12/09 05:54:18;;;;;;;12.48;7.70;;;;;;;-3.17;53.92;94325.38;5038480;28;20119;-75
2022/12/09 05:56:43;;;;;;;19.17;10.70;;;;;;;-3.24;51.45;94339.84;5040746;28;20029;-75
2022/12/09 05:59:09;;;;;;;16.25;9.32;;;;;;;-3.31;50.37;94329.94;5038443;28;20045;-75
2022/12/09 06:01:34;;;;;;;17.10;9.13;;;;;;;-3.42;49.39;94323.00;5040829;28;20083;-75
2022/12/09 06:03:59;;;;;;;15.65;9.40;;;;;;;-3.49;49.35;94324.44;5037437;28;20502;-75
2022/12/09 06:06:26;;;;;;;19.55;10.38;;;;;;;-3.79;46.01;94326.75;5015759;28;20225;-75
2022/12/09 06:08:54;;;;;;;15.38;8.95;;;;;;;-3.93;50.29;94324.41;5023094;28;20126;-75
2022/12/09 06:11:19;;;;;;;15.15;9.10;;;;;;;-3.89;50.89;94322.38;5014705;28;20041;-75
2022/12/09 06:13:45;;;;;;;16.15;8.60;;;;;;;-3.72;52.71;94318.44;5005640;28;20029;-75
2022/12/09 06:16:11;;;;;;;12.82;8.60;;;;;;;-3.63;50.38;94316.91;5040047;28;20102;-75
2022/12/09 06:18:37;;;;;;;15.45;9.05;;;;;;;-3.56;50.51;94325.88;4998098;28;20262;-75
2022/12/09 06:21:06;;;;;;;14.75;8.52;;;;;;;-3.47;52.99;94313.91;5000950;28;20041;-75
2022/12/09 06:23:34;;;;;;;14.20;7.97;;;;;;;-3.35;54.55;94319.91;5031238;28;20072;-75
2022/12/09 06:25:59;;;;;;;13.35;8.05;;;;;;;-3.29;53.40;94317.63;5040500;28;20052;-75
2022/12/09 06:28:24;;;;;;;17.40;9.73;;;;;;;-3.53;49.86;94321.25;5010462;28;20402;-75
2022/12/09 06:30:50;;;;;;;12.65;7.10;;;;;;;-3.58;50.49;94318.19;5024241;28;20052;-75
2022/12/09 06:33:15;;;;;;;13.40;7.82;;;;;;;-3.46;52.52;94321.56;5024876;28;20029;-75
2022/12/09 06:35:40;;;;;;;16.33;8.68;;;;;;;-3.63;48.53;94320.34;5030088;28;20064;-75
2022/12/09 06:38:06;;;;;;;17.33;9.05;;;;;;;-3.62;50.64;94310.75;5022722;28;20037;-75
2022/12/09 06:40:31;;;;;;;12.90;7.63;;;;;;;-3.54;52.47;94317.00;5046457;28;20028;-75
2022/12/09 06:42:57;;;;;;;12.55;7.10;;;;;;;-3.52;55.68;94315.06;5030746;28;20045;-75
2022/12/09 06:45:22;;;;;;;20.92;10.75;;;;;;;-3.65;50.34;94306.63;5019635;28;20104;-75
2022/12/09 06:47:48;;;;;;;13.30;7.88;;;;;;;-3.60;52.71;94304.47;5018694;28;20041;-75
2022/12/09 06:50:13;;;;;;;14.50;8.25;;;;;;;-3.59;48.70;94300.09;5005182;28;20107;-75
2022/12/09 06:52:38;;;;;;;12.25;7.07;;;;;;;-3.46;54.85;94313.75;5013154;28;20057;-75
2022/12/09 06:55:05;;;;;;;11.00;6.32;;;;;;;-3.42;52.50;94312.59;4995777;28;20029;-75
2022/12/09 06:57:30;;;;;;;10.15;6.15;;;;;;;-3.35;50.65;94317.28;4997042;28;20108;-75
2022/12/09 06:59:56;;;;;;;8.90;5.53;;;;;;;-3.29;53.89;94314.19;5016338;28;20683;-75
2022/12/09 07:02:21;;;;;;;10.13;5.80;;;;;;;-3.25;53.77;94313.00;5010002;28;20041;-75
2022/12/09 07:04:53;;;;;;;9.80;5.50;;;;;;;-3.19;53.70;94324.69;5012778;28;20046;-75
2022/12/09 07:07:19;;;;;;;8.63;5.20;;;;;;;-3.09;53.54;94320.38;4998030;28;20053;-75
2022/12/09 07:09:44;;;;;;;8.50;5.05;;;;;;;-3.05;52.54;94323.56;5005272;28;20134;-75
2022/12/09 07:12:10;;;;;;;10.25;6.10;;;;;;;-3.07;51.23;94315.88;5010142;28;20022;-75
2022/12/09 07:14:35;;;;;;;8.35;5.18;;;;;;;-3.04;50.97;94314.81;5013052;28;20501;-75
2022/12/09 07:17:01;;;;;;;8.52;5.00;;;;;;;-2.98;53.78;94310.88;5033045;28;20033;-75
2022/12/09 07:19:26;;;;;;;7.63;5.50;;;;;;;-2.97;53.57;94318.56;4988027;28;20037;-75
2022/12/09 07:21:52;;;;;;;9.40;5.40;;;;;;;-2.96;54.76;94316.78;5010061;28;20038;-75
2022/12/09 07:24:18;;;;;;;8.63;5.20;;;;;;;-3.02;53.89;94318.13;5014283;28;20537;-75
2022/12/09 07:26:43;;;;;;;8.32;5.32;;;;;;;-2.99;54.45;94323.06;5007735;28;20056;-75
2022/12/09 07:29:09;;;;;;;7.72;5.22;;;;;;;-2.99;53.57;94319.63;5041716;28;20040;-75
2022/12/09 07:31:34;;;;;;;10.55;5.18;;;;;;;-2.99;54.91;94312.63;5043169;28;20052;-75
2022/12/09 07:34:00;;;;;;;8.98;5.07;;;;;;;-2.98;53.20;94322.13;5039927;28;20044;-75
2022/12/09 07:36:27;;;;;;;8.57;4.80;;;;;;;-2.98;53.93;94318.69;5025427;28;20505;-75
2022/12/09 07:38:56;;;;;;;7.65;4.75;;;;;;;-3.01;54.72;94324.97;5042183;28;20068;-75
2022/12/09 07:41:21;;;;;;;10.02;5.75;;;;;;;-3.03;51.47;94334.66;5043569;28;20036;-75
2022/12/09 07:43:47;;;;;;;10.43;6.10;;;;;;;-3.10;51.97;94326.53;5024402;28;20051;-75
2022/12/09 08:48:36;;;;;;;8.40;5.00;;;;;;;-1.25;54.40;94318.00;5010930;28;20060;-71
2022/12/09 08:51:02;;;;;;;9.07;5.63;;;;;;;-0.96;55.76;94326.84;5038903;28;20128;-72
2022/12/09 08:53:27;;;;;;;9.25;6.03;;;;;;;-0.80;52.34;94312.38;5040046;28;20049;-71
2022/12/09 08:55:53;;;;;;;11.18;6.60;;;;;;;-0.61;55.09;94311.53;5022870;28;20045;-71
2022/12/09 08:58:18;;;;;;;11.02;6.75;;;;;;;-0.43;54.83;94312.44;5020688;28;20056;-71
2022/12/09 09:00:43;;;;;;;11.98;7.07;;;;;;;-0.28;53.95;94312.00;5014510;28;20402;-71
2022/12/09 09:03:09;;;;;;;12.07;7.95;;;;;;;-0.15;53.02;94313.47;5021051;28;20099;-71
2022/12/09 09:05:34;;;;;;;11.95;7.68;;;;;;;-0.06;54.53;94313.44;5020811;28;20045;-71
2022/12/09 09:08:00;;;;;;;10.90;7.68;;;;;;;0.11;52.57;94312.81;5040499;28;20218;-72
2022/12/09 09:10:25;;;;;;;12.55;8.60;;;;;;;0.29;54.25;94318.09;5037370;28;20524;-71
2022/12/09 09:12:50;;;;;;;15.18;10.02;;;;;;;0.23;55.12;94314.28;5039729;28;20090;-73
2022/12/09 09:15:16;;;;;;;15.15;9.38;;;;;;;0.46;53.34;94317.34;5038977;28;20041;-72
2022/12/09 09:17:41;;;;;;;20.45;10.63;;;;;;;0.66;51.77;94316.38;5041867;28;20504;-72
2022/12/09 09:20:07;;;;;;;18.15;11.32;;;;;;;0.81;51.34;94311.44;5040990;28;20037;-72
2022/12/09 09:22:33;;;;;;;19.85;11.88;;;;;;;0.97;51.77;94319.47;5040287;28;20041;-72
2022/12/09 09:24:58;;;;;;;19.55;12.10;;;;;;;1.14;51.83;94319.59;5038479;28;20262;-72
2022/12/09 09:27:24;;;;;;;18.73;11.82;;;;;;;1.27;52.64;94308.75;5039699;28;20037;-72
2022/12/09 09:29:49;;;;;;;18.60;11.57;;;;;;;1.43;51.79;94318.50;5040974;28;20029;-72
2022/12/09 09:32:15;;;;;;;16.73;11.20;;;;;;;1.61;51.74;94315.06;5040751;28;20370;-72
2022/12/09 09:34:40;;;;;;;23.08;12.88;;;;;;;1.78;51.81;94317.78;5041149;28;20037;-72
2022/12/09 09:37:05;;;;;;;22.55;12.63;;;;;;;1.92;52.29;94321.63;5041251;28;20070;-72
2022/12/09 09:39:31;;;;;;;17.63;11.57;;;;;;;2.08;53.00;94316.47;5039746;28;20102;-72
2022/12/09 09:41:59;;;;;;;17.17;9.93;;;;;;;2.23;52.48;94313.25;5037943;28;20033;-72
2022/12/09 09:44:38;;;;;;;14.25;9.48;;;;;;;2.33;51.00;94313.97;5021454;28;20466;-72
2022/12/09 09:47:33;;;;;;;14.82;10.35;;;;;;;2.30;50.70;94310.81;5018502;28;20072;-72
2022/12/09 09:50:00;;;;;;;15.38;9.77;;;;;;;2.60;52.30;94301.56;5035801;28;20351;-73
2022/12/09 09:52:27;;;;;;;14.75;9.13;;;;;;;2.77;52.75;94298.97;5039413;28;20021;-72
2022/12/09 09:54:52;;;;;;;15.88;9.90;;;;;;;2.91;52.16;94297.50;5037845;28;20185;-72
2022/12/09 09:57:31;;;;;;;15.75;9.85;;;;;;;2.98;49.79;94301.13;5039254;28;20367;-73
2022/12/09 09:59:56;;;;;;;;;;;;;;;3.11;51.39;94294.56;5038802;28;20076;-72
2022/12/09 10:02:59;;;;;;;18.33;10.77;;;;;;;3.17;48.08;94294.72;5038826;28;19955;-72
2022/12/09 10:05:44;;;;;;;18.55;11.45;;;;;;;3.30;52.26;94288.13;5035369;28;20059;-73
2022/12/09 10:08:40;;;;;;;19.73;12.05;;;;;;;3.36;49.74;94290.13;5033516;28;20041;-73
2022/12/09 10:11:24;;;;;;;17.65;11.57;;;;;;;3.50;51.20;94287.84;5032392;28;20596;-72
2022/12/09 10:13:53;;;;;;;17.23;10.88;;;;;;;3.62;48.79;94283.88;5040493;28;20501;-72
2022/12/09 10:16:38;;;;;;;18.25;12.13;;;;;;;3.75;49.07;94278.09;5039993;28;20029;-73
2022/12/09 10:19:11;;;;;;;15.05;9.80;;;;;;;4.01;50.53;94273.59;5038084;28;20041;-73
2022/12/09 10:21:40;;;;;;;13.48;9.27;;;;;;;4.16;49.28;94271.88;5036545;28;20370;-73
2022/12/09 10:24:19;;;;;;;16.80;10.05;;;;;;;4.22;48.03;94280.91;5037922;28;20120;-73
2022/12/09 10:27:02;;;;;;;11.48;7.65;;;;;;;4.30;48.25;94272.97;5038459;28;20075;-72
2022/12/09 10:30:03;;;;;;;15.70;9.90;;;;;;;4.30;45.18;94266.88;5023846;28;20377;-72
2022/12/09 10:32:29;;;;;;;20.95;12.02;;;;;;;4.43;47.39;94267.13;4957326;28;20039;-73
2022/12/09 10:34:55;;;;;;;22.67;13.95;;;;;;;4.55;47.16;94269.38;5001761;28;20414;-73
2022/12/09 10:37:26;;;;;;;30.27;19.77;;;;;;;4.28;49.29;94259.16;5039922;28;20088;-73
2022/12/09 10:40:18;;;;;;;35.17;23.92;;;;;;;4.24;49.01;94257.00;5022979;28;20041;-72
2022/12/09 10:45:53;;;;;;;15.88;9.95;;;;;;;4.51;44.34;94241.72;5038035;28;20044;-71
2022/12/09 10:48:33;;;;;;;16.38;11.10;;;;;;;4.41;44.30;94248.06;5036355;28;20048;-71
2022/12/09 10:51:20;;;;;;;17.77;12.13;;;;;;;4.42;47.35;94248.88;5038498;28;20741;-71
2022/12/09 10:53:47;;;;;;;18.65;13.55;;;;;;;4.37;46.96;94244.13;5037654;28;20071;-71
2022/12/09 10:56:25;;;;;;;19.10;12.18;;;;;;;4.19;43.67;94242.53;5021639;28;20025;-71
2022/12/09 10:59:10;;;;;;;20.40;13.82;;;;;;;4.03;46.46;94240.00;5040104;28;20045;-71
2022/12/09 11:01:55;;;;;;;26.55;17.52;;;;;;;3.86;45.65;94236.59;5038782;28;20029;-71
2022/12/09 11:04:31;;;;;;;16.10;10.27;;;;;;;4.04;44.92;94242.44;5036920;28;20064;-71
2022/12/09 11:07:02;;;;;;;12.90;7.60;;;;;;;4.06;45.27;94240.44;5037077;28;20076;-71
2022/12/09 11:09:35;;;;;;;16.17;11.82;;;;;;;4.10;46.44;94240.94;5038395;28;20031;-71
2022/12/09 11:12:01;;;;;;;9.43;6.40;;;;;;;4.10;46.04;94242.75;5035905;28;20048;-71
2022/12/09 11:14:39;;;;;;;14.98;9.50;;;;;;;4.09;46.80;94238.47;5039140;28;20078;-71
2022/12/09 11:17:12;;;;;;;8.73;5.32;;;;;;;4.09;43.09;94238.47;5035997;28;20036;-71
2022/12/09 11:19:37;;;;;;;20.50;13.63;;;;;;;4.05;45.20;94235.38;5039387;28;20048;-71
2022/12/09 11:22:37;;;;;;;9.38;5.57;;;;;;;4.14;42.02;94239.63;5036345;28;20394;-71
2022/12/09 11:25:12;;;;;;;15.30;10.32;;;;;;;4.16;42.38;94240.28;5036263;28;20540;-71
2022/12/09 11:27:41;;;;;;;21.00;15.95;;;;;;;4.27;43.00;94236.44;5041243;28;20059;-71
2022/12/09 11:30:13;;;;;;;16.15;10.05;;;;;;;4.32;43.43;94238.56;5039698;28;20545;-71
2022/12/09 11:33:15;;;;;;;4.47;3.00;;;;;;;4.43;39.50;94232.88;5042905;28;20306;-71
2022/12/09 11:35:43;;;;;;;7.60;4.90;;;;;;;4.76;42.70;94231.84;5010133;28;20215;-71
2022/12/09 11:38:38;;;;;;;9.97;5.97;;;;;;;5.33;44.23;94234.22;5041953;28;20071;-71
2022/12/09 11:41:10;;;;;;;7.03;4.05;;;;;;;7.13;37.36;94211.19;5034964;28;20036;-71
2022/12/09 11:43:49;;;;;;;16.27;11.32;;;;;;;9.79;33.32;94218.84;5042140;28;20077;-71
2022/12/09 11:46:25;;;;;;;7.65;5.60;;;;;;;12.23;30.78;94218.16;5040878;28;20129;-71
2022/12/09 11:49:00;;;;;;;19.05;13.48;;;;;;;14.11;28.06;94212.97;5040438;28;20044;-71
2022/12/09 11:51:29;;;;;;;20.10;11.10;;;;;;;14.92;26.57;94211.38;5030833;28;20043;-71
2022/12/09 11:54:01;;;;;;;7.97;4.82;;;;;;;16.93;22.56;94211.00;5041470;28;20124;-71
2022/12/09 11:56:26;;;;;;;15.02;9.18;;;;;;;18.51;22.46;94210.06;5042787;28;20029;-72
2022/12/09 11:59:03;;;;;;;21.27;14.70;;;;;;;18.69;19.93;94211.50;5042757;28;20193;-72
2022/12/09 12:01:56;;;;;;;11.45;8.38;;;;;;;19.99;19.88;94213.56;5026054;28;20584;-72
2022/12/09 12:04:25;;;;;;;23.67;16.75;;;;;;;21.00;20.48;94211.88;5011215;28;20564;-72
2022/12/09 12:06:55;;;;;;;13.68;9.82;;;;;;;21.85;18.66;94212.88;4994751;28;20162;-72
2022/12/09 12:09:29;;;;;;;10.57;8.32;;;;;;;22.56;20.82;94214.41;4995755;28;20052;-73
2022/12/09 12:12:12;;;;;;;12.40;7.93;;;;;;;23.84;19.33;94221.06;5008996;28;20160;-72
2022/12/09 12:14:40;;;;;;;23.30;17.05;;;;;;;23.09;16.70;94218.06;5012328;28;20075;-72
2022/12/09 12:17:24;;;;;;;16.92;13.25;;;;;;;23.58;16.33;94207.06;5010623;28;20385;-72
2022/12/09 12:19:50;;;;;;;23.73;17.88;;;;;;;24.30;15.22;94205.03;5011000;28;20129;-73
2022/12/09 12:22:32;;;;;;;11.68;8.20;;;;;;;24.55;14.56;94205.66;5009274;28;20061;-72
2022/12/09 12:25:35;;;;;;;13.55;10.30;;;;;;;25.51;12.72;94201.47;5006732;28;20026;-72
2022/12/09 12:28:15;;;;;;;10.50;7.90;;;;;;;25.71;12.79;94192.81;5011569;28;20038;-73
2022/12/09 12:30:47;;;;;;;13.07;10.25;;;;;;;25.96;13.71;94201.44;5007793;28;20074;-72
2022/12/09 12:33:18;;;;;;;14.40;10.35;;;;;;;25.85;12.95;94198.19;5011589;28;20022;-73
2022/12/09 12:36:05;;;;;;;16.60;14.02;;;;;;;26.52;12.50;94200.28;5007659;28;20038;-73
2022/12/09 12:38:48;;;;;;;16.98;10.40;;;;;;;26.65;11.97;94184.13;5005642;28;20142;-73
2022/12/09 12:41:21;;;;;;;19.90;14.52;;;;;;;26.19;11.05;94189.72;5002068;28;20057;-72
2022/12/09 12:46:51;;;;;;;;;;;;;;;26.99;12.68;94190.78;5038402;28;20132;-72